createdAt,value
2023-04-02T00:00:40.335Z,0.96
2023-04-02T00:01:40.373Z,0.99
2023-04-02T00:02:40.466Z,0.97
2023-04-02T00:03:40.472Z,0.92
2023-04-02T00:04:40.429Z,0.95
2023-04-02T00:05:40.453Z,0.90
2023-04-02T00:06:40.702Z,0.95
2023-04-02T00:07:40.524Z,0.94
2023-04-02T00:08:40.519Z,0.85
2023-04-02T00:09:40.540Z,0.84
2023-04-02T00:10:40.573Z,0.86
2023-04-02T00:11:40.599Z,0.95
2023-04-02T00:12:40.627Z,0.94
2023-04-02T00:13:40.633Z,0.94
2023-04-02T00:14:40.663Z,0.99
2023-04-02T00:15:40.671Z,0.97
2023-04-02T00:16:40.750Z,0.98
2023-04-02T00:17:40.731Z,0.97
2023-04-02T00:18:40.763Z,0.97
2023-04-02T00:19:40.764Z,0.96
2023-04-02T00:20:40.809Z,1.00
2023-04-02T00:21:40.826Z,1.06
2023-04-02T00:22:40.865Z,0.99
2023-04-02T00:23:40.876Z,0.95
2023-04-02T00:24:40.915Z,0.89
2023-04-02T00:25:40.912Z,0.98
2023-04-02T00:26:40.985Z,1.05
2023-04-02T00:27:40.990Z,1.00
2023-04-02T00:28:41.012Z,1.03
2023-04-02T00:29:41.034Z,1.04
2023-04-02T00:30:41.038Z,1.02
2023-04-02T00:31:41.118Z,1.00
2023-04-02T00:32:41.169Z,0.99
2023-04-02T00:33:41.144Z,0.98
2023-04-02T00:34:41.148Z,1.02
2023-04-02T00:35:41.219Z,0.99
2023-04-02T00:36:41.210Z,1.05
2023-04-02T00:37:41.242Z,1.08
2023-04-02T00:38:41.279Z,1.08
2023-04-02T00:39:41.277Z,1.11
2023-04-02T00:40:41.313Z,1.11
2023-04-02T00:41:41.348Z,1.09
2023-04-02T00:42:41.365Z,1.12
2023-04-02T00:43:41.442Z,1.13
2023-04-02T00:44:41.424Z,1.14
2023-04-02T00:45:41.483Z,1.18
2023-04-02T00:46:41.494Z,1.20
2023-04-02T00:47:41.531Z,1.21
2023-04-02T00:48:41.564Z,1.23
2023-04-02T00:49:41.574Z,1.24
2023-04-02T00:50:41.617Z,1.22
2023-04-02T00:51:41.631Z,1.23
2023-04-02T00:52:41.672Z,1.20
2023-04-02T00:53:41.696Z,1.21
2023-04-02T00:54:41.734Z,1.23
2023-04-02T00:55:41.750Z,1.20
2023-04-02T00:56:41.782Z,1.21
2023-04-02T00:57:41.800Z,1.19
2023-04-02T00:58:41.828Z,1.20
2023-04-02T00:59:41.869Z,1.19
2023-04-02T01:00:41.886Z,1.19
2023-04-02T01:01:41.961Z,1.19
2023-04-02T01:02:42.026Z,1.18
2023-04-02T01:03:42.017Z,1.18
2023-04-02T01:04:41.994Z,1.20
2023-04-02T01:05:42.019Z,1.14
2023-04-02T01:06:42.069Z,1.17
2023-04-02T01:07:42.102Z,1.17
2023-04-02T01:08:42.126Z,1.26
2023-04-02T01:09:42.150Z,1.18
2023-04-02T01:10:42.157Z,1.16
2023-04-02T01:11:42.213Z,1.13
2023-04-02T01:12:42.231Z,1.16
2023-04-02T01:13:42.258Z,1.18
2023-04-02T01:14:42.287Z,1.24
2023-04-02T01:15:42.338Z,1.21
2023-04-02T01:16:42.376Z,1.21
2023-04-02T01:17:42.423Z,1.22
2023-04-02T01:18:42.392Z,1.22
2023-04-02T01:19:42.447Z,1.31
2023-04-02T01:20:42.444Z,1.25
2023-04-02T01:21:42.463Z,1.19
2023-04-02T01:22:42.554Z,1.22
2023-04-02T01:23:42.492Z,1.23
2023-04-02T01:24:42.520Z,1.22
2023-04-02T01:25:42.566Z,1.21
2023-04-02T01:26:42.583Z,1.29
2023-04-02T01:27:42.638Z,1.30
2023-04-02T01:28:42.626Z,1.27
2023-04-02T01:29:42.670Z,1.28
2023-04-02T01:30:42.679Z,1.21
2023-04-02T01:31:42.772Z,1.23
2023-04-02T01:32:42.760Z,1.20
2023-04-02T01:33:42.766Z,1.25
2023-04-02T01:34:42.799Z,1.31
2023-04-02T01:35:42.854Z,1.20
2023-04-02T01:36:42.833Z,1.16
2023-04-02T01:37:42.878Z,1.24
2023-04-02T01:38:42.905Z,1.15
2023-04-02T01:39:42.914Z,1.12
2023-04-02T01:40:42.941Z,1.20
2023-04-02T01:41:42.977Z,1.27
2023-04-02T01:42:43.021Z,1.29
2023-04-02T01:43:43.022Z,1.27
2023-04-02T01:44:43.061Z,1.24
2023-04-02T01:45:43.098Z,1.22
2023-04-02T01:46:43.149Z,1.21
2023-04-02T01:47:43.199Z,1.19
2023-04-02T01:48:43.169Z,1.21
2023-04-02T01:49:43.200Z,1.20
2023-04-02T01:50:43.215Z,1.30
2023-04-02T01:51:43.233Z,1.40
2023-04-02T01:52:43.264Z,1.36
2023-04-02T01:53:43.289Z,1.34
2023-04-02T01:54:43.361Z,1.36
2023-04-02T01:55:43.356Z,1.34
2023-04-02T01:56:43.374Z,1.26
2023-04-02T01:57:43.403Z,1.27
2023-04-02T01:58:43.446Z,1.23
2023-04-02T01:59:43.497Z,1.21
2023-04-02T02:00:43.531Z,1.24
2023-04-02T02:01:43.566Z,1.36
2023-04-02T02:02:43.688Z,1.27
2023-04-02T02:03:43.600Z,1.28
2023-04-02T02:04:43.646Z,1.31
2023-04-02T02:05:43.659Z,1.21
2023-04-02T02:06:43.680Z,1.17
2023-04-02T02:07:43.699Z,1.25
2023-04-02T02:08:43.742Z,1.19
2023-04-02T02:09:43.774Z,1.28
2023-04-02T02:10:43.806Z,1.18
2023-04-02T02:11:43.836Z,1.13
2023-04-02T02:12:43.884Z,1.15
2023-04-02T02:13:43.892Z,1.13
2023-04-02T02:14:43.940Z,1.23
2023-04-02T02:15:43.951Z,1.24
2023-04-02T02:16:44.102Z,1.20
2023-04-02T02:17:44.104Z,1.23
2023-04-02T02:18:44.058Z,1.23
2023-04-02T02:19:44.087Z,1.23
2023-04-02T02:20:44.122Z,1.13
2023-04-02T02:21:44.151Z,1.09
2023-04-02T02:22:44.185Z,1.15
2023-04-02T02:23:44.222Z,1.13
2023-04-02T02:24:44.265Z,1.13
2023-04-02T02:25:44.306Z,1.21
2023-04-02T02:26:44.340Z,1.25
2023-04-02T02:27:44.368Z,1.14
2023-04-02T02:28:44.408Z,1.17
2023-04-02T02:29:44.425Z,1.32
2023-04-02T02:30:44.475Z,1.36
2023-04-02T02:31:44.597Z,1.25
2023-04-02T02:32:44.591Z,1.26
2023-04-02T02:33:44.580Z,1.30
2023-04-02T02:34:44.601Z,1.25
2023-04-02T02:35:44.652Z,1.25
2023-04-02T02:36:44.660Z,1.28
2023-04-02T02:37:44.706Z,1.28
2023-04-02T02:38:44.730Z,1.29
2023-04-02T02:39:44.768Z,1.31
2023-04-02T02:40:44.859Z,1.28
2023-04-02T02:41:44.839Z,1.32
2023-04-02T02:42:44.882Z,1.30
2023-04-02T02:43:44.923Z,1.33
2023-04-02T02:44:44.954Z,1.34
2023-04-02T02:45:45.004Z,1.38
2023-04-02T02:46:45.020Z,1.37
2023-04-02T02:47:45.066Z,1.43
2023-04-02T02:48:45.097Z,1.43
2023-04-02T02:49:45.142Z,1.40
2023-04-02T02:50:45.139Z,1.41
2023-04-02T02:51:45.185Z,1.40
2023-04-02T02:52:45.227Z,1.36
2023-04-02T02:53:45.248Z,1.37
2023-04-02T02:54:45.280Z,1.37
2023-04-02T02:55:45.335Z,1.42
2023-04-02T02:56:45.364Z,1.47
2023-04-02T02:57:45.400Z,1.45
2023-04-02T02:58:45.412Z,1.42
2023-04-02T02:59:45.471Z,1.39
2023-04-02T03:00:45.498Z,1.37
2023-04-02T03:01:45.611Z,1.41
2023-04-02T03:02:45.645Z,1.35
2023-04-02T03:03:45.817Z,1.33
2023-04-02T03:04:45.643Z,1.28
2023-04-02T03:05:45.674Z,1.27
2023-04-02T03:06:45.713Z,1.26
2023-04-02T03:07:45.754Z,1.25
2023-04-02T03:08:45.770Z,1.26
2023-04-02T03:09:45.807Z,1.28
2023-04-02T03:10:45.862Z,1.34
2023-04-02T03:11:45.874Z,1.31
2023-04-02T03:12:45.920Z,1.31
2023-04-02T03:13:45.959Z,1.28
2023-04-02T03:14:45.981Z,1.28
2023-04-02T03:15:46.022Z,1.32
2023-04-02T03:16:46.060Z,1.39
2023-04-02T03:17:46.142Z,1.36
2023-04-02T03:18:46.146Z,1.33
2023-04-02T03:19:46.173Z,1.38
2023-04-02T03:20:46.211Z,1.38
2023-04-02T03:21:46.223Z,1.35
2023-04-02T03:22:46.274Z,1.41
2023-04-02T03:23:46.317Z,1.36
2023-04-02T03:24:46.356Z,1.38
2023-04-02T03:25:46.388Z,1.33
2023-04-02T03:26:46.392Z,1.40
2023-04-02T03:27:46.476Z,1.38
2023-04-02T03:28:46.475Z,1.35
2023-04-02T03:29:46.479Z,1.39
2023-04-02T03:30:46.526Z,1.41
2023-04-02T03:31:46.583Z,1.36
2023-04-02T03:32:46.663Z,1.35
2023-04-02T03:33:46.610Z,1.40
2023-04-02T03:34:46.627Z,1.45
2023-04-02T03:35:46.699Z,1.36
2023-04-02T03:36:46.709Z,1.35
2023-04-02T03:37:46.721Z,1.34
2023-04-02T03:38:46.759Z,1.37
2023-04-02T03:39:46.789Z,1.27
2023-04-02T03:40:46.823Z,1.28
2023-04-02T03:41:46.802Z,1.28
2023-04-02T03:42:46.788Z,1.28
2023-04-02T03:43:46.791Z,1.20
2023-04-02T03:44:46.759Z,1.22
2023-04-02T03:45:46.777Z,1.18
2023-04-02T03:46:46.788Z,1.24
2023-04-02T03:47:46.814Z,1.19
2023-04-02T03:48:46.729Z,1.23
2023-04-02T03:49:46.728Z,1.25
2023-04-02T03:50:46.760Z,1.30
2023-04-02T03:51:46.706Z,1.31
2023-04-02T03:52:46.708Z,1.35
2023-04-02T03:53:46.691Z,1.39
2023-04-02T03:54:53.142Z,1.37
2023-04-02T03:55:47.746Z,1.37
2023-04-02T03:56:46.740Z,1.37
2023-04-02T03:57:46.700Z,1.39
2023-04-02T03:58:46.700Z,1.41
2023-04-02T03:59:47.256Z,1.44
2023-04-02T04:00:46.665Z,1.47
2023-04-02T04:01:46.726Z,1.44
2023-04-02T04:02:46.702Z,1.46
2023-04-02T04:03:46.709Z,1.47
2023-04-02T04:04:46.673Z,1.50
2023-04-02T04:05:46.634Z,1.46
2023-04-02T04:06:46.643Z,1.50
2023-04-02T04:07:46.621Z,1.55
2023-04-02T04:08:46.663Z,1.51
2023-04-02T04:09:46.685Z,1.46
2023-04-02T04:10:46.759Z,1.50
2023-04-02T04:11:46.738Z,1.46
2023-04-02T04:12:46.757Z,1.41
2023-04-02T04:13:46.809Z,1.48
2023-04-02T04:14:46.843Z,1.38
2023-04-02T04:15:46.871Z,1.39
2023-04-02T04:16:46.945Z,1.41
2023-04-02T04:17:46.956Z,1.46
2023-04-02T04:18:46.969Z,1.46
2023-04-02T04:19:47.059Z,1.45
2023-04-02T04:20:47.070Z,1.47
2023-04-02T04:21:47.088Z,1.53
2023-04-02T04:22:47.134Z,1.51
2023-04-02T04:23:47.177Z,1.43
2023-04-02T04:24:47.198Z,1.40
2023-04-02T04:25:47.285Z,1.41
2023-04-02T04:26:47.270Z,1.46
2023-04-02T04:27:47.314Z,1.42
2023-04-02T04:28:47.347Z,1.35
2023-04-02T04:29:47.406Z,1.23
2023-04-02T04:30:47.415Z,1.26
2023-04-02T04:31:47.520Z,1.26
2023-04-02T04:32:47.523Z,1.23
2023-04-02T04:33:47.560Z,1.24
2023-04-02T04:34:47.568Z,1.21
2023-04-02T04:35:47.651Z,1.29
2023-04-02T04:36:47.667Z,1.28
2023-04-02T04:37:47.694Z,1.29
2023-04-02T04:38:47.712Z,1.26
2023-04-02T04:39:47.779Z,1.32
2023-04-02T04:40:47.796Z,1.25
2023-04-02T04:41:47.842Z,1.29
2023-04-02T04:42:47.879Z,1.41
2023-04-02T04:43:47.921Z,1.49
2023-04-02T04:44:47.937Z,1.52
2023-04-02T04:45:48.012Z,1.55
2023-04-02T04:46:48.029Z,1.52
2023-04-02T04:47:48.100Z,1.52
2023-04-02T04:48:48.106Z,1.47
2023-04-02T04:49:48.152Z,1.49
2023-04-02T04:50:48.156Z,1.44
2023-04-02T04:51:48.190Z,1.43
2023-04-02T04:52:48.249Z,1.41
2023-04-02T04:53:48.269Z,1.45
2023-04-02T04:54:48.309Z,1.44
2023-04-02T04:55:48.341Z,1.39
2023-04-02T04:56:48.432Z,1.44
2023-04-02T04:57:48.445Z,1.40
2023-04-02T04:58:48.453Z,1.36
2023-04-02T04:59:48.499Z,1.37
2023-04-02T05:00:49.956Z,1.36
2023-04-02T05:01:48.593Z,1.40
2023-04-02T05:02:48.639Z,1.44
2023-04-02T05:03:48.628Z,1.45
2023-04-02T05:04:48.703Z,1.49
2023-04-02T05:05:48.703Z,1.47
2023-04-02T05:06:48.741Z,1.44
2023-04-02T05:07:48.765Z,1.47
2023-04-02T05:08:48.819Z,1.44
2023-04-02T05:09:48.836Z,1.41
2023-04-02T05:10:48.867Z,1.37
2023-04-02T05:11:48.885Z,1.41
2023-04-02T05:12:48.939Z,1.41
2023-04-02T05:13:48.980Z,1.44
2023-04-02T05:14:49.000Z,1.41
2023-04-02T05:15:49.087Z,1.34
2023-04-02T05:16:49.118Z,1.28
2023-04-02T05:17:49.145Z,1.38
2023-04-02T05:18:49.161Z,1.48
2023-04-02T05:19:49.199Z,1.43
2023-04-02T05:20:49.225Z,1.42
2023-04-02T05:21:49.291Z,1.41
2023-04-02T05:22:49.305Z,1.36
2023-04-02T05:23:49.363Z,1.37
2023-04-02T05:24:49.389Z,1.37
2023-04-02T05:25:49.429Z,1.38
2023-04-02T05:26:49.447Z,1.36
2023-04-02T05:27:49.492Z,1.40
2023-04-02T05:28:49.526Z,1.38
2023-04-02T05:29:49.579Z,1.36
2023-04-02T05:30:49.615Z,1.31
2023-04-02T05:31:49.653Z,1.31
2023-04-02T05:32:49.726Z,1.32
2023-04-02T05:33:49.700Z,1.29
2023-04-02T05:34:49.738Z,1.36
2023-04-02T05:35:49.824Z,1.32
2023-04-02T05:36:49.830Z,1.36
2023-04-02T05:37:49.848Z,1.40
2023-04-02T05:38:49.883Z,1.37
2023-04-02T05:39:49.928Z,1.37
2023-04-02T05:40:49.957Z,1.34
2023-04-02T05:41:50.009Z,1.37
2023-04-02T05:42:50.024Z,1.42
2023-04-02T05:43:50.077Z,1.41
2023-04-02T05:44:50.088Z,1.38
2023-04-02T05:45:50.093Z,1.44
2023-04-02T05:46:50.161Z,1.40
2023-04-02T05:47:50.168Z,1.42
2023-04-02T05:48:50.216Z,1.42
2023-04-02T05:49:50.218Z,1.39
2023-04-02T05:50:50.266Z,1.46
2023-04-02T05:51:50.309Z,1.46
2023-04-02T05:52:50.326Z,1.50
2023-04-02T05:53:50.351Z,1.54
2023-04-02T05:54:50.389Z,1.53
2023-04-02T05:55:50.398Z,1.53
2023-04-02T05:56:50.463Z,1.52
2023-04-02T05:58:06.987Z,1.52
2023-04-02T05:58:51.521Z,1.52
2023-04-02T05:59:50.445Z,1.53
2023-04-02T06:00:50.452Z,1.54
2023-04-02T06:01:50.491Z,1.55
2023-04-02T06:02:50.512Z,1.56
2023-04-02T06:03:50.452Z,1.58
2023-04-02T06:04:50.428Z,1.57
2023-04-02T06:05:50.425Z,1.58
2023-04-02T06:06:50.404Z,1.55
2023-04-02T06:07:50.405Z,1.59
2023-04-02T06:08:50.404Z,1.55
2023-04-02T06:09:50.384Z,1.59
2023-04-02T06:10:50.397Z,1.61
2023-04-02T06:11:50.394Z,1.60
2023-04-02T06:12:50.390Z,1.61
2023-04-02T06:13:50.392Z,1.58
2023-04-02T06:14:50.416Z,1.57
2023-04-02T06:15:50.472Z,1.55
2023-04-02T06:16:50.480Z,1.54
2023-04-02T06:17:50.494Z,1.56
2023-04-02T06:18:50.508Z,1.57
2023-04-02T06:19:50.546Z,1.57
2023-04-02T06:20:50.564Z,1.62
2023-04-02T06:21:50.588Z,1.62
2023-04-02T06:22:50.597Z,1.63
2023-04-02T06:23:50.638Z,1.61
2023-04-02T06:24:50.644Z,1.60
2023-04-02T06:25:50.685Z,1.65
2023-04-02T06:26:50.700Z,1.63
2023-04-02T06:27:50.730Z,1.61
2023-04-02T06:28:50.735Z,1.64
2023-04-02T06:29:50.747Z,1.70
2023-04-02T06:30:50.794Z,1.75
2023-04-02T06:31:50.789Z,1.74
2023-04-02T06:32:50.892Z,1.75
2023-04-02T06:33:50.870Z,1.77
2023-04-02T06:34:50.820Z,1.77
2023-04-02T06:35:50.841Z,1.76
2023-04-02T06:36:50.869Z,1.71
2023-04-02T06:37:50.873Z,1.69
2023-04-02T06:38:50.857Z,1.74
2023-04-02T06:39:50.860Z,1.77
2023-04-02T06:40:50.888Z,1.73
2023-04-02T06:41:50.854Z,1.75
2023-04-02T06:42:50.875Z,1.77
2023-04-02T06:43:50.882Z,1.73
2023-04-02T06:44:50.856Z,1.74
2023-04-02T06:45:50.895Z,1.67
2023-04-02T06:46:52.438Z,1.67
2023-04-02T06:47:50.958Z,1.67
2023-04-02T06:48:50.846Z,1.63
2023-04-02T06:49:50.852Z,1.65
2023-04-02T06:50:50.851Z,1.68
2023-04-02T06:51:50.865Z,1.67
2023-04-02T06:52:50.867Z,1.69
2023-04-02T06:53:50.874Z,1.77
2023-04-02T06:54:50.873Z,1.75
2023-04-02T06:55:50.864Z,1.78
2023-04-02T06:56:50.873Z,1.77
2023-04-02T06:57:50.835Z,1.77
2023-04-02T06:58:50.854Z,1.80
2023-04-02T06:59:50.839Z,1.72
2023-04-02T07:00:50.859Z,1.67
2023-04-02T07:01:50.887Z,1.63
2023-04-02T07:02:50.942Z,1.68
2023-04-02T07:03:50.888Z,1.76
2023-04-02T07:04:50.919Z,1.79
2023-04-02T07:05:50.904Z,1.76
2023-04-02T07:06:50.940Z,1.80
2023-04-02T07:07:50.960Z,1.79
2023-04-02T07:08:50.978Z,1.81
2023-04-02T07:09:50.987Z,1.79
2023-04-02T07:10:51.032Z,1.79
2023-04-02T07:11:51.060Z,1.75
2023-04-02T07:12:51.162Z,1.86
2023-04-02T07:13:51.162Z,1.89
2023-04-02T07:14:51.218Z,1.77
2023-04-02T07:15:51.270Z,1.82
2023-04-02T07:16:51.319Z,1.84
2023-04-02T07:17:51.483Z,1.84
2023-04-02T07:18:51.453Z,1.83
2023-04-02T07:19:51.532Z,1.86
2023-04-02T07:20:52.173Z,1.81
2023-04-02T07:21:51.629Z,1.83
2023-04-02T07:22:51.690Z,1.83
2023-04-02T07:23:51.754Z,1.85
2023-04-02T07:24:51.842Z,1.81
2023-04-02T07:25:51.881Z,1.84
2023-04-02T07:26:51.947Z,1.80
2023-04-02T07:27:51.962Z,1.81
2023-04-02T07:28:52.007Z,1.79
2023-04-02T07:29:52.074Z,1.84
2023-04-02T07:30:52.064Z,1.79
2023-04-02T07:31:52.158Z,1.77
2023-04-02T07:32:52.219Z,1.77
2023-04-02T07:33:52.244Z,1.73
2023-04-02T07:34:52.271Z,1.72
2023-04-02T07:35:52.391Z,1.72
2023-04-02T07:36:52.353Z,1.65
2023-04-02T07:37:52.412Z,1.65
2023-04-02T07:38:52.479Z,1.64
2023-04-02T07:39:52.519Z,1.64
2023-04-02T07:40:52.584Z,1.63
2023-04-02T07:41:52.626Z,1.62
2023-04-02T07:42:52.684Z,1.65
2023-04-02T07:43:52.711Z,1.60
2023-04-02T07:44:52.744Z,1.59
2023-04-02T07:45:52.802Z,1.55
2023-04-02T07:46:52.859Z,1.52
2023-04-02T07:47:52.880Z,1.49
2023-04-02T07:48:52.901Z,1.49
2023-04-02T07:49:52.910Z,1.49
2023-04-02T07:50:52.958Z,1.52
2023-04-02T07:51:52.969Z,1.50
2023-04-02T07:52:53.011Z,1.53
2023-04-02T07:53:53.043Z,1.50
2023-04-02T07:54:53.090Z,1.48
2023-04-02T07:55:53.143Z,1.49
2023-04-02T07:56:53.205Z,1.45
2023-04-02T07:57:53.219Z,1.47
2023-04-02T07:58:53.259Z,1.39
2023-04-02T07:59:53.302Z,1.43
2023-04-02T08:00:53.345Z,1.39
2023-04-02T08:01:53.407Z,1.41
2023-04-02T08:02:53.506Z,1.45
2023-04-02T08:03:54.442Z,1.43
2023-04-02T08:04:53.536Z,1.44
2023-04-02T08:05:53.602Z,1.43
2023-04-02T08:06:53.669Z,1.41
2023-04-02T08:07:53.706Z,1.39
2023-04-02T08:08:53.781Z,1.39
2023-04-02T08:09:53.818Z,1.41
2023-04-02T08:10:53.905Z,1.37
2023-04-02T08:11:53.953Z,1.38
2023-04-02T08:12:53.994Z,1.41
2023-04-02T08:13:54.065Z,1.44
2023-04-02T08:14:54.129Z,1.42
2023-04-02T08:15:54.171Z,1.34
2023-04-02T08:16:54.340Z,1.37
2023-04-02T08:17:54.305Z,1.40
2023-04-02T08:18:54.320Z,1.38
2023-04-02T08:19:55.444Z,1.34
2023-04-02T08:20:54.424Z,1.32
2023-04-02T08:21:54.495Z,1.32
2023-04-02T08:22:54.532Z,1.34
2023-04-02T08:23:54.585Z,1.33
2023-04-02T08:24:54.648Z,1.37
2023-04-02T08:25:54.713Z,1.31
2023-04-02T08:26:54.751Z,1.29
2023-04-02T08:27:54.754Z,1.28
2023-04-02T08:28:54.799Z,1.27
2023-04-02T08:29:54.842Z,1.31
2023-04-02T08:30:54.945Z,1.24
2023-04-02T08:31:54.925Z,1.22
2023-04-02T08:32:54.996Z,1.22
2023-04-02T08:33:55.011Z,1.21
2023-04-02T08:34:55.066Z,1.22
2023-04-02T08:35:55.164Z,1.17
2023-04-02T08:36:55.159Z,1.17
2023-04-02T08:37:55.215Z,1.11
2023-04-02T08:38:55.286Z,1.11
2023-04-02T08:39:55.310Z,1.11
2023-04-02T08:40:55.380Z,1.12
2023-04-02T08:41:55.442Z,1.09
2023-04-02T08:42:55.466Z,1.11
2023-04-02T08:43:55.554Z,1.06
2023-04-02T08:44:55.568Z,1.06
2023-04-02T08:45:55.654Z,1.05
2023-04-02T08:46:55.684Z,1.03
2023-04-02T08:47:55.765Z,1.06
2023-04-02T08:48:55.813Z,1.05
2023-04-02T08:49:55.872Z,1.04
2023-04-02T08:50:55.918Z,1.00
2023-04-02T08:51:55.987Z,1.01
2023-04-02T08:52:56.057Z,1.02
2023-04-02T08:53:56.107Z,1.01
2023-04-02T08:54:56.196Z,1.00
2023-04-02T08:55:56.262Z,0.98
2023-04-02T08:56:56.343Z,0.97
2023-04-02T08:57:56.355Z,1.00
2023-04-02T08:58:56.399Z,1.01
2023-04-02T08:59:56.462Z,0.99
2023-04-02T09:00:56.517Z,1.00
2023-04-02T09:01:56.723Z,0.99
2023-04-02T09:02:56.633Z,0.98
2023-04-02T09:03:56.601Z,1.04
2023-04-02T09:04:56.679Z,0.98
2023-04-02T09:05:56.681Z,0.96
2023-04-02T09:06:56.728Z,0.96
2023-04-02T09:07:56.730Z,0.97
2023-04-02T09:08:56.775Z,0.93
2023-04-02T09:09:56.868Z,0.92
2023-04-02T09:10:56.842Z,0.94
2023-04-02T09:11:56.888Z,0.92
2023-04-02T09:12:56.911Z,0.92
2023-04-02T09:13:56.947Z,0.90
2023-04-02T09:14:56.968Z,0.87
2023-04-02T09:15:57.040Z,0.90
2023-04-02T09:16:57.053Z,0.93
2023-04-02T09:17:59.074Z,0.92
2023-04-02T09:18:57.265Z,0.92
2023-04-02T09:19:57.296Z,0.90
2023-04-02T09:20:57.319Z,0.93
2023-04-02T09:21:57.351Z,0.90
2023-04-02T09:22:57.364Z,0.91
2023-04-02T09:23:57.432Z,0.88
2023-04-02T09:24:57.489Z,0.85
2023-04-02T09:26:04.248Z,0.88
2023-04-02T09:26:58.481Z,0.88
2023-04-02T09:27:57.484Z,0.89
2023-04-02T09:28:57.462Z,0.89
2023-04-02T09:29:57.461Z,0.89
2023-04-02T09:30:57.436Z,0.86
2023-04-02T09:31:57.490Z,0.84
2023-04-02T09:32:57.486Z,0.82
2023-04-02T09:33:57.434Z,0.84
2023-04-02T09:34:57.429Z,0.82
2023-04-02T09:35:57.471Z,0.84
2023-04-02T09:36:57.486Z,0.87
2023-04-02T09:37:57.520Z,0.85
2023-04-02T09:38:57.553Z,0.79
2023-04-02T09:39:57.577Z,0.82
2023-04-02T09:40:57.623Z,0.85
2023-04-02T09:42:05.595Z,0.86
2023-04-02T09:42:58.652Z,0.86
2023-04-02T09:43:57.647Z,0.85
2023-04-02T09:44:57.631Z,0.87
2023-04-02T09:45:57.630Z,0.83
2023-04-02T09:46:57.666Z,0.79
2023-04-02T09:47:57.642Z,0.81
2023-04-02T09:48:57.608Z,0.82
2023-04-02T09:49:57.596Z,0.82
2023-04-02T09:50:57.610Z,0.81
2023-04-02T09:51:57.610Z,0.82
2023-04-02T09:52:57.663Z,0.81
2023-04-02T09:53:57.713Z,0.80
2023-04-02T09:54:57.759Z,0.77
2023-04-02T09:55:57.783Z,0.82
2023-04-02T09:56:57.883Z,0.75
2023-04-02T09:57:58.850Z,0.75
2023-04-02T09:58:57.989Z,0.73
2023-04-02T09:59:58.042Z,0.72
2023-04-02T10:00:58.094Z,0.70
2023-04-02T10:01:58.137Z,0.73
2023-04-02T10:02:58.248Z,0.69
2023-04-02T10:03:58.282Z,0.68
2023-04-02T10:04:58.283Z,0.68
2023-04-02T10:05:58.353Z,0.68
2023-04-02T10:06:58.395Z,0.69
2023-04-02T10:07:58.432Z,0.66
2023-04-02T10:08:58.489Z,0.70
2023-04-02T10:09:58.554Z,0.71
2023-04-02T10:10:58.608Z,0.69
2023-04-02T10:11:58.693Z,0.71
2023-04-02T10:12:58.732Z,0.68
2023-04-02T10:13:58.784Z,0.68
2023-04-02T10:14:58.813Z,0.70
2023-04-02T10:15:58.846Z,0.66
2023-04-02T10:16:58.940Z,0.64
2023-04-02T10:17:58.982Z,0.65
2023-04-02T10:18:58.965Z,0.68
2023-04-02T10:19:58.991Z,0.67
2023-04-02T10:20:59.030Z,0.65
2023-04-02T10:21:59.093Z,0.64
2023-04-02T10:22:59.141Z,0.65
2023-04-02T10:23:59.188Z,0.65
2023-04-02T10:24:59.252Z,0.63
2023-04-02T10:25:59.300Z,0.62
2023-04-02T10:26:59.329Z,0.63
2023-04-02T10:27:59.328Z,0.62
2023-04-02T10:28:59.379Z,0.63
2023-04-02T10:29:59.393Z,0.63
2023-04-02T10:30:59.457Z,0.64
2023-04-02T10:31:59.442Z,0.66
2023-04-02T10:32:59.524Z,0.66
2023-04-02T10:33:59.532Z,0.65
2023-04-02T10:34:59.586Z,0.64
2023-04-02T10:35:59.621Z,0.66
2023-04-02T10:36:59.663Z,0.64
2023-04-02T10:37:59.679Z,0.67
2023-04-02T10:38:59.717Z,0.70
2023-04-02T10:39:59.726Z,0.65
2023-04-02T10:40:59.807Z,0.65
2023-04-02T10:41:59.834Z,0.62
2023-04-02T10:42:59.840Z,0.62
2023-04-02T10:44:09.179Z,0.62
2023-04-02T10:45:00.867Z,0.62
2023-04-02T10:45:59.863Z,0.63
2023-04-02T10:46:59.854Z,0.63
2023-04-02T10:47:59.915Z,0.66
2023-04-02T10:48:59.881Z,0.68
2023-04-02T10:49:59.835Z,0.65
2023-04-02T10:50:59.837Z,0.68
2023-04-02T10:51:59.814Z,0.66
2023-04-02T10:52:59.858Z,0.63
2023-04-02T10:53:59.912Z,0.65
2023-04-02T10:54:59.905Z,0.67
2023-04-02T10:55:59.962Z,0.63
2023-04-02T10:57:00.018Z,0.62
2023-04-02T10:58:00.022Z,0.64
2023-04-02T10:59:00.085Z,0.67
2023-04-02T11:00:00.195Z,0.62
2023-04-02T11:01:00.179Z,0.65
2023-04-02T11:02:00.329Z,0.68
2023-04-02T11:03:00.348Z,0.67
2023-04-02T11:04:00.423Z,0.63
2023-04-02T11:05:01.948Z,0.64
2023-04-02T11:06:00.437Z,0.61
2023-04-02T11:07:11.208Z,0.58
2023-04-02T11:08:01.582Z,0.58
2023-04-02T11:09:00.449Z,0.58
2023-04-02T11:10:00.464Z,0.58
2023-04-02T11:11:00.842Z,0.59
2023-04-02T11:12:00.442Z,0.58
2023-04-02T11:13:00.433Z,0.58
2023-04-02T11:14:00.448Z,0.59
2023-04-02T11:15:00.413Z,0.58
2023-04-02T11:16:00.482Z,0.56
2023-04-02T11:17:00.472Z,0.58
2023-04-02T11:18:00.564Z,0.58
2023-04-02T11:19:00.567Z,0.59
2023-04-02T11:20:00.604Z,0.58
2023-04-02T11:21:00.651Z,0.55
2023-04-02T11:22:02.583Z,0.58
2023-04-02T11:23:00.656Z,0.57
2023-04-02T11:24:00.647Z,0.61
2023-04-02T11:25:00.649Z,0.60
2023-04-02T11:26:00.623Z,0.60
2023-04-02T11:27:00.604Z,0.60
2023-04-02T11:28:00.616Z,0.59
2023-04-02T11:29:00.638Z,0.58
2023-04-02T11:30:00.603Z,0.61
2023-04-02T11:31:00.691Z,0.62
2023-04-02T11:32:00.591Z,0.64
2023-04-02T11:33:00.583Z,0.65
2023-04-02T11:34:00.574Z,0.64
2023-04-02T11:35:07.192Z,0.64
2023-04-02T11:36:01.606Z,0.65
2023-04-02T11:37:00.565Z,0.65
2023-04-02T11:38:00.563Z,0.66
2023-04-02T11:39:11.025Z,0.67
2023-04-02T11:40:01.523Z,0.65
2023-04-02T11:41:00.526Z,0.63
2023-04-02T11:42:00.523Z,0.67
2023-04-02T11:43:00.515Z,0.66
2023-04-02T11:44:00.505Z,0.63
2023-04-02T11:45:00.500Z,0.60
2023-04-02T11:46:00.506Z,0.67
2023-04-02T11:47:00.543Z,0.65
2023-04-02T11:48:00.692Z,0.64
2023-04-02T11:49:00.495Z,0.65
2023-04-02T11:50:00.557Z,0.64
2023-04-02T11:51:00.592Z,0.65
2023-04-02T11:52:11.262Z,0.66
2023-04-02T11:53:01.617Z,0.67
2023-04-02T11:54:00.630Z,0.65
2023-04-02T11:55:00.595Z,0.68
2023-04-02T11:56:00.573Z,0.68
2023-04-02T11:57:00.594Z,0.64
2023-04-02T11:58:00.583Z,0.64
2023-04-02T11:59:00.555Z,0.63
2023-04-02T12:00:00.604Z,0.70
2023-04-02T12:01:00.539Z,0.71
2023-04-02T12:02:00.584Z,0.75
2023-04-02T12:03:00.552Z,0.68
2023-04-02T12:04:00.585Z,0.69
2023-04-02T12:05:00.669Z,0.69
2023-04-02T12:06:02.834Z,0.72
2023-04-02T12:07:00.668Z,0.71
2023-04-02T12:08:00.657Z,0.66
2023-04-02T12:09:00.648Z,0.61
2023-04-02T12:10:00.659Z,0.64
2023-04-02T12:11:00.622Z,0.60
2023-04-02T12:12:00.637Z,0.55
2023-04-02T12:13:00.625Z,0.59
2023-04-02T12:14:00.638Z,0.53
2023-04-02T12:15:00.590Z,0.57
2023-04-02T12:16:00.600Z,0.56
2023-04-02T12:17:00.661Z,0.53
2023-04-02T12:18:00.597Z,0.50
2023-04-02T12:19:00.602Z,0.52
2023-04-02T12:20:00.588Z,0.52
2023-04-02T12:21:00.553Z,0.52
2023-04-02T12:22:00.585Z,0.54
2023-04-02T12:23:00.536Z,0.53
2023-04-02T12:24:00.581Z,0.58
2023-04-02T12:25:00.559Z,0.53
2023-04-02T12:26:00.530Z,0.55
2023-04-02T12:27:00.522Z,0.53
2023-04-02T12:28:00.516Z,0.51
2023-04-02T12:29:00.513Z,0.51
2023-04-02T12:30:00.490Z,0.53
2023-04-02T12:31:00.537Z,0.53
2023-04-02T12:32:00.493Z,0.55
2023-04-02T12:33:00.522Z,0.58
2023-04-02T12:34:00.462Z,0.59
2023-04-02T12:35:00.457Z,0.55
2023-04-02T12:36:00.499Z,0.53
2023-04-02T12:37:00.445Z,0.55
2023-04-02T12:38:00.550Z,0.58
2023-04-02T12:39:00.461Z,0.55
2023-04-02T12:40:00.436Z,0.57
2023-04-02T12:41:00.425Z,0.60
2023-04-02T12:42:00.409Z,0.58
2023-04-02T12:43:00.409Z,0.62
2023-04-02T12:44:00.413Z,0.66
2023-04-02T12:45:00.418Z,0.64
2023-04-02T12:46:00.480Z,0.62
2023-04-02T12:47:00.524Z,0.55
2023-04-02T12:48:00.660Z,0.53
2023-04-02T12:49:00.593Z,0.57
2023-04-02T12:50:00.683Z,0.58
2023-04-02T12:51:00.701Z,0.63
2023-04-02T12:52:00.724Z,0.64
2023-04-02T12:53:00.800Z,0.69
2023-04-02T12:54:00.792Z,0.62
2023-04-02T12:55:00.820Z,0.66
2023-04-02T12:56:00.842Z,0.68
2023-04-02T12:57:00.941Z,0.61
2023-04-02T12:58:00.941Z,0.60
2023-04-02T12:59:00.969Z,0.59
2023-04-02T13:00:01.036Z,0.57
2023-04-02T13:01:01.098Z,0.58
2023-04-02T13:02:01.276Z,0.58
2023-04-02T13:03:01.276Z,0.56
2023-04-02T13:04:01.348Z,0.56
2023-04-02T13:06:20.508Z,0.50
2023-04-02T13:07:20.483Z,0.50
2023-04-02T13:08:20.471Z,0.50
2023-04-02T13:09:20.487Z,0.50
2023-04-02T13:10:20.478Z,0.50
2023-04-02T13:11:20.470Z,0.54
2023-04-02T13:12:20.449Z,0.51
2023-04-02T13:13:20.438Z,0.54
2023-04-02T13:14:20.447Z,0.51
2023-04-02T13:15:20.445Z,0.53
2023-04-02T13:16:20.478Z,0.51
2023-04-02T13:17:20.431Z,0.54
2023-04-02T13:18:20.408Z,0.51
2023-04-02T13:19:20.406Z,0.52
2023-04-02T13:20:20.403Z,0.50